Date,TemperatureHighF,TemperatureAvgF,TemperatureLowF,DewpointHighF,DewpointAvgF,DewpointLowF,HumidityHigh,HumidityAvg,HumidityLow,PressureMaxIn,PressureMinIn,WindSpeedMaxMPH,WindSpeedAvgMPH,GustSpeedMaxMPH,PrecipitationSumIn
2013-1-1,35,29,16,27,15,3,75,57,44,29.92,29.68,33,11,34,0.00
2013-1-2,25,16,6,16,6,-6,71,62,55,30.12,29.90,28,8,30,0.00
2013-1-3,22,12,3,8,-2,-7,67,52,30,30.15,30.00,20,6,21,0.00
2013-1-4,36,29,17,23,19,8,84,68,56,30.00,29.81,31,7,33,0.00
2013-1-5,38,33,26,24,20,15,68,57,43,30.26,29.82,27,8,32,0.00
2013-1-6,40,32,23,28,24,15,90,73,61,30.23,29.94,18,5,19,0.07
2013-1-7,34,32,27,30,21,12,86,65,43,30.41,29.96,27,6,27,0.00
2013-1-8,43,34,24,27,24,19,85,67,49,30.38,30.27,22,8,23,0.00
2013-1-9,43,36,28,34,26,21,77,68,55,30.42,30.00,29,6,29,0.00
2013-1-10,44,40,33,30,25,23,69,56,47,30.55,30.01,39,13,40,0.00
2013-1-11,38,34,29,34,27,23,94,76,61,30.54,30.24,10,4,11,0.69
2013-1-12,41,38,36,40,37,34,96,95,94,30.25,30.15,10,2,10,0.39
2013-1-13,48,44,40,47,43,39,96,96,96,30.17,29.99,17,5,17,0.08
2013-1-14,59,48,38,50,40,26,97,76,43,30.26,29.83,28,7,28,0.03
2013-1-15,38,35,32,27,24,22,69,65,62,30.30,30.25,15,3,15,0.00
2013-1-16,32,31,29,30,27,22,95,87,66,30.26,29.82,8,1,8,0.00
2013-1-17,40,32,26,33,24,7,95,75,43,30.12,29.83,26,5,26,0.37
2013-1-18,26,18,12,8,0,-5,57,44,31,30.45,30.06,35,7,35,0.00
2013-1-19,44,34,18,29,20,6,72,56,45,30.39,29.87,27,8,32,0.02
2013-1-20,50,39,27,31,24,9,73,55,26,29.91,29.52,42,12,43,0.00
2013-1-21,27,22,18,19,8,0,90,57,39,30.09,29.81,33,6,38,0.00
2013-1-22,22,18,10,18,8,-4,91,67,37,30.08,29.78,28,7,28,0.00
2013-1-23,12,8,1,0,-10,-15,64,44,30,30.16,30.07,28,8,30,0.00
2013-1-24,17,7,-2,-7,-11,-13,63,44,30,30.25,30.09,35,11,39,0.00
2013-1-25,20,13,6,9,-6,-10,76,43,29,30.34,30.10,29,7,29,0.00
2013-1-26,20,15,10,10,2,-8,84,58,32,30.23,30.03,33,9,33,0.00
2013-1-27,28,19,12,4,0,-5,64,45,26,30.49,30.21,30,10,30,0.00
2013-1-28,28,22,17,21,9,-3,91,61,39,30.47,30.06,15,3,16,0.00
2013-1-29,34,28,23,30,25,20,94,88,80,30.22,30.06,7,2,9,0.12
2013-1-30,58,45,32,56,43,30,96,94,90,30.18,29.44,34,7,34,0.60
2013-1-31,61,45,29,58,34,14,95,68,42,29.56,28.93,50,17,55,0.49
2013-2-1,30,26,20,15,9,4,59,49,38,30.08,29.56,34,12,41,0.00
2013-2-2,27,22,15,12,6,3,62,51,42,30.25,30.07,22,6,22,0.00
2013-2-3,26,23,20,21,19,13,91,83,60,30.07,29.75,12,3,12,0.00
2013-2-4,28,23,19,20,10,3,89,58,39,29.93,29.73,35,10,35,0.00
2013-2-5,29,22,17,17,9,4,79,58,47,30.06,29.93,20,4,20,0.00
2013-2-6,36,28,22,25,18,4,91,68,41,30.32,29.95,28,5,28,0.01
2013-2-7,26,20,14,4,-1,-4,53,40,31,30.57,30.33,18,4,18,0.00
2013-2-8,22,19,16,17,13,0,90,81,37,30.53,29.74,37,9,37,0.00
2013-2-9,20,17,15,17,11,2,91,77,57,30.23,29.67,46,16,46,0.00
2013-2-10,37,25,14,4,1,-2,57,37,23,30.41,30.23,23,7,23,0.00
2013-2-11,33,28,24,32,20,0,95,74,29,30.36,29.64,13,2,13,0.17
2013-2-12,43,37,32,34,30,27,95,75,56,29.88,29.61,32,9,33,0.22
2013-2-13,42,35,30,27,23,21,74,62,48,29.87,29.74,20,5,20,0.00
2013-2-14,44,35,28,25,22,20,74,61,42,30.00,29.72,16,4,16,0.00
2013-2-15,52,40,28,33,28,22,91,64,45,30.00,29.90,30,6,30,0.00
2013-2-16,39,34,28,31,24,14,94,70,52,29.97,29.74,21,6,24,0.07
2013-2-17,28,20,15,15,8,1,87,60,43,29.74,29.39,51,16,51,0.01
2013-2-18,29,21,13,3,0,-3,58,41,25,30.17,29.67,37,14,41,0.00
2013-2-19,44,34,22,40,20,2,95,59,38,30.19,29.59,17,5,18,0.70
2013-2-20,40,31,26,39,21,13,95,66,47,29.77,29.54,33,11,33,0.01
2013-2-21,28,25,22,16,13,9,71,60,50,30.23,29.77,32,11,33,0.00
2013-2-22,39,31,23,24,20,16,81,65,44,30.43,30.23,18,5,19,0.00
2013-2-23,36,33,30,31,28,24,94,81,74,30.36,29.95,18,4,20,0.00
2013-2-24,34,32,30,32,31,28,95,94,94,29.95,29.74,19,4,19,0.28
2013-2-25,37,33,29,33,31,28,95,91,83,30.26,29.92,10,2,10,0.37
2013-2-26,41,36,32,34,31,27,94,82,67,30.36,30.20,14,4,14,0.09
2013-2-27,40,36,33,38,34,29,95,92,81,30.20,29.60,41,12,41,0.97
2013-2-28,45,38,32,36,34,31,95,86,70,29.65,29.55,13,4,15,0.07
2013-3-1,39,36,33,33,30,27,92,79,68,29.70,29.55,18,5,18,0.00
2013-3-2,41,35,31,30,27,25,80,72,62,29.69,29.63,17,6,17,0.00
2013-3-3,38,32,28,31,27,24,90,80,68,29.66,29.57,22,7,22,0.02
2013-3-4,36,32,29,28,24,22,86,73,61,29.77,29.60,32,11,32,0.00
2013-3-5,43,36,29,33,27,22,91,72,57,30.10,29.77,18,6,19,0.00
2013-3-6,36,34,31,34,32,29,94,91,79,30.17,30.08,31,9,31,0.19
2013-3-7,34,31,30,30,28,26,94,88,78,30.15,30.05,29,10,29,0.03
2013-3-8,44,34,29,33,26,21,95,75,46,30.20,30.00,24,8,24,0.02
2013-3-9,52,38,30,30,24,16,89,60,26,30.38,30.19,14,5,14,0.00
2013-3-10,44,36,28,32,29,25,91,78,60,30.44,30.32,11,5,15,0.00
2013-3-11,50,41,32,39,33,30,92,76,51,30.34,30.16,18,6,22,0.00
2013-3-12,53,48,41,52,46,39,96,94,86,30.17,29.73,27,7,30,0.69
2013-3-13,52,43,36,50,31,21,95,65,37,29.79,29.71,22,8,23,0.00
2013-3-14,36,30,21,24,16,7,72,56,46,29.84,29.71,32,9,32,0.00
2013-3-15,39,27,18,29,13,5,86,56,29,29.88,29.65,33,9,33,0.00
2013-3-16,36,31,26,26,14,9,78,51,34,29.91,29.69,26,6,27,0.00
2013-3-17,33,28,23,14,9,2,68,45,30,30.34,29.91,30,8,33,0.00
2013-3-18,37,27,16,25,7,0,86,45,23,30.48,30.27,16,4,16,0.00
2013-3-19,33,30,25,31,28,23,95,93,86,30.27,29.68,35,9,35,0.08
2013-3-20,36,29,24,26,22,19,93,77,53,29.82,29.72,33,8,33,0.19
2013-3-21,38,30,23,26,19,13,91,65,39,29.82,29.62,15,4,15,0.03
2013-3-22,39,32,27,26,19,15,91,61,42,29.74,29.62,24,7,26,0.00
2013-3-23,41,34,26,22,20,17,76,57,39,29.78,29.65,37,12,37,0.00
2013-3-24,45,38,32,28,24,21,71,58,44,29.83,29.74,30,8,32,0.00
2013-3-25,42,36,30,32,28,22,76,71,63,29.79,29.56,22,6,22,0.00
2013-3-26,49,40,34,28,23,19,76,53,32,29.79,29.58,22,6,22,0.00
2013-3-27,50,41,33,33,25,22,82,54,38,29.89,29.76,26,9,27,0.00
2013-3-28,47,41,35,35,32,29,92,72,51,30.03,29.89,19,5,22,0.01
2013-3-29,54,45,39,36,32,30,74,62,43,30.06,29.98,19,6,19,0.00
2013-3-30,54,45,37,32,23,14,79,47,23,30.11,30.02,22,6,22,0.00
2013-3-31,58,47,35,39,24,15,84,42,24,30.13,29.77,27,6,28,0.07
2013-4-1,59,44,33,43,35,12,95,72,36,29.78,29.51,37,9,37,0.37
2013-4-2,37,32,28,16,12,8,54,43,33,29.93,29.78,46,11,46,0.00
2013-4-3,44,35,28,16,11,5,54,38,20,30.15,29.91,37,13,37,0.00
2013-4-4,54,41,29,23,15,10,58,37,20,30.30,30.02,24,9,25,0.00
2013-4-5,58,46,36,29,25,16,72,47,20,30.02,29.66,25,8,26,0.00
2013-4-6,43,38,30,6,4,1,36,24,18,30.35,30.19,30,8,35,0.00
2013-4-7,55,43,33,38,23,5,77,46,26,30.35,29.99,31,8,33,0.00
2013-4-8,63,51,43,41,37,30,90,63,31,30.11,29.96,22,6,25,0.00
2013-4-9,66,54,44,50,43,38,92,69,43,30.09,29.88,26,6,28,0.06
2013-4-10,57,49,44,50,45,41,95,87,73,30.02,29.87,14,2,14,1.45
2013-4-11,48,44,39,46,37,25,95,77,44,30.17,29.85,16,5,17,0.08
2013-4-12,41,36,34,34,31,24,94,84,52,30.20,29.84,28,8,29,0.74
2013-4-13,50,41,34,39,35,32,94,80,59,29.95,29.78,17,4,17,0.10
2013-4-14,51,45,39,38,33,27,84,63,41,30.23,29.93,27,7,27,0.00
2013-4-15,57,45,36,37,32,29,79,63,37,30.40,30.23,18,5,18,0.00
2013-4-16,66,52,38,51,42,35,89,71,46,30.41,30.05,35,9,35,0.00
2013-4-17,63,56,49,52,35,27,83,49,27,30.35,30.04,25,9,25,0.00
2013-4-18,60,52,43,43,31,26,74,46,33,30.45,30.16,39,7,39,0.00
2013-4-19,73,62,51,62,56,43,95,80,60,30.17,29.62,40,10,40,0.00
2013-4-20,67,51,41,62,38,21,94,65,35,30.22,29.60,31,10,32,0.70
2013-4-21,51,41,32,30,20,13,69,45,22,30.70,30.22,29,7,30,0.00
2013-4-22,48,42,36,33,28,21,81,60,36,30.79,30.62,25,7,26,0.00
2013-4-23,40,38,34,39,35,30,95,90,81,30.63,30.17,19,5,19,0.04
2013-4-24,75,56,40,51,44,37,95,69,26,30.16,29.79,30,7,31,0.01
2013-4-25,61,54,47,50,34,23,92,51,24,30.28,29.82,29,8,29,0.06
2013-4-26,58,50,43,37,31,25,72,48,37,30.44,30.28,19,6,21,0.00
2013-4-27,65,52,42,39,35,33,76,54,33,30.44,30.29,18,4,20,0.00
2013-4-28,68,55,43,40,36,31,78,53,29,30.35,30.22,24,4,24,0.00
2013-4-29,68,57,46,46,37,29,77,49,31,30.27,30.18,20,4,20,0.00
2013-4-30,68,59,50,34,28,21,45,32,21,30.38,30.25,17,4,17,0.00
2013-5-1,70,58,44,36,32,28,61,40,24,30.48,30.37,19,4,19,0.00
2013-5-2,77,57,46,44,37,31,71,51,24,30.51,30.35,29,4,30,0.00
2013-5-3,60,51,41,45,40,36,87,68,53,30.55,30.39,18,6,19,0.00
2013-5-4,60,51,42,44,38,28,89,64,31,30.39,30.30,19,5,22,0.00
2013-5-5,63,50,37,41,38,35,94,68,41,30.35,30.26,16,4,17,0.00
2013-5-6,72,54,40,48,42,30,94,70,24,30.30,30.15,17,3,17,0.00
2013-5-7,78,64,49,58,50,40,91,66,30,30.18,30.08,19,4,19,0.00
2013-5-8,72,63,57,61,57,54,94,81,62,30.21,30.06,31,6,33,0.05
2013-5-9,65,58,55,60,56,54,96,94,79,30.06,29.90,13,2,13,0.82
2013-5-10,78,64,54,60,56,53,97,77,45,29.96,29.90,16,3,16,0.01
2013-5-11,68,63,58,61,58,54,95,86,75,29.91,29.70,28,6,28,0.19
2013-5-12,68,59,48,60,49,29,96,72,37,29.80,29.57,29,6,29,0.07
2013-5-13,55,48,42,32,29,27,66,50,35,30.04,29.80,29,8,29,0.00
2013-5-14,57,48,39,35,31,26,76,53,32,30.07,29.98,25,7,26,0.00
2013-5-15,64,52,39,51,38,29,91,62,30,30.06,29.68,24,6,29,0.08
2013-5-16,78,65,52,51,42,32,92,49,21,29.83,29.63,39,10,39,0.00
2013-5-17,67,58,49,42,40,34,72,52,31,30.23,29.83,26,7,26,0.00
2013-5-18,72,59,47,49,42,34,92,58,27,30.32,30.22,24,4,24,0.00
2013-5-19,69,55,49,54,50,47,95,85,54,30.36,30.23,19,3,19,0.93
2013-5-20,79,65,54,64,59,53,96,82,59,30.22,29.93,16,4,16,0.37
2013-5-21,70,59,49,64,56,47,95,90,80,30.05,29.90,26,5,26,0.09
2013-5-22,59,53,49,57,52,47,96,95,91,30.10,29.88,23,3,23,2.65
2013-5-23,73,61,52,70,59,50,97,94,82,29.95,29.80,25,4,25,1.42
2013-5-24,70,61,47,66,58,46,97,91,77,29.84,29.64,23,6,27,2.74
2013-5-25,49,45,38,47,44,36,96,95,88,29.83,29.72,27,8,27,0.58
2013-5-26,55,46,38,42,38,36,95,77,56,30.10,29.71,33,10,33,0.09
2013-5-27,69,56,41,44,38,34,90,55,28,30.19,30.08,25,6,25,0.00
2013-5-28,72,61,49,50,42,35,82,53,33,30.25,30.16,18,4,18,0.00
2013-5-29,65,60,56,62,58,50,96,93,81,30.19,30.00,14,2,14,1.32
2013-5-30,87,74,62,68,64,61,97,73,43,30.08,30.01,19,6,21,0.01
2013-5-31,91,81,68,70,65,62,85,62,40,30.09,29.92,20,5,21,0.00
2013-6-1,91,81,71,69,65,58,79,61,34,29.96,29.83,22,6,22,0.00
2013-6-2,88,77,68,71,67,61,94,72,42,29.86,29.69,32,7,32,0.07
2013-6-3,78,68,58,67,61,46,96,80,49,29.84,29.74,31,5,31,0.51
2013-6-4,65,56,50,47,44,40,73,64,49,30.10,29.83,13,5,14,0.00
2013-6-5,73,62,51,51,46,42,81,59,36,30.20,30.09,15,4,15,0.00
2013-6-6,72,63,55,57,52,49,87,68,51,30.20,30.11,18,4,19,0.00
2013-6-7,57,53,50,54,51,49,96,93,86,30.12,29.85,21,5,22,1.37
2013-6-8,75,62,51,63,56,50,96,84,63,30.00,29.66,25,7,25,0.66
2013-6-9,77,68,58,59,56,52,94,69,44,30.17,30.00,23,5,23,0.00
2013-6-10,68,62,56,59,56,53,95,80,69,30.21,30.03,15,4,15,0.76
2013-6-11,59,56,54,56,54,52,96,94,87,30.03,29.60,24,5,24,1.11
2013-6-12,68,60,55,56,54,52,97,81,63,29.82,29.57,32,7,32,0.03
2013-6-13,66,58,53,58,54,50,95,86,68,29.82,29.71,15,2,15,0.55
2013-6-14,75,61,52,58,53,49,96,78,44,29.78,29.67,15,4,17,0.25
2013-6-15,76,67,57,54,48,42,75,52,32,29.93,29.78,19,6,20,0.00
2013-6-16,73,66,58,59,54,48,79,65,47,29.93,29.70,17,5,18,0.00
2013-6-17,82,68,59,63,59,55,94,76,46,29.91,29.77,23,5,24,0.10
2013-6-18,69,62,58,61,59,57,96,90,73,29.95,29.89,7,3,8,0.00
2013-6-19,73,64,54,56,51,45,96,68,38,30.15,29.93,18,8,18,0.00
2013-6-20,77,70,53,56,51,47,82,54,37,30.27,30.16,16,4,18,0.00
2013-6-21,84,71,58,63,56,49,87,62,33,30.25,30.19,15,4,17,0.00
2013-6-22,82,73,64,68,62,59,88,71,53,30.21,30.10,18,5,18,0.00
2013-6-23,88,76,64,74,66,60,85,73,55,30.15,29.97,23,5,23,0.00
2013-6-24,77,72,69,70,68,66,92,86,76,30.00,29.90,17,5,17,0.05
2013-6-25,88,76,68,72,68,65,95,78,53,29.92,29.72,23,5,23,0.30
2013-6-26,80,71,64,72,68,62,96,91,69,29.86,29.72,13,3,14,0.59
2013-6-27,68,63,59,66,62,58,97,96,93,29.87,29.77,16,3,16,0.41
2013-6-28,76,65,56,73,64,55,98,95,86,29.78,29.49,24,5,25,0.38
2013-6-29,81,74,69,71,69,67,96,84,62,29.71,29.52,24,5,24,0.00
2013-6-30,84,75,67,73,69,65,96,82,63,29.92,29.71,19,5,21,0.00
2013-7-1,79,72,70,73,70,68,97,92,79,30.07,29.92,15,3,15,1.91
2013-7-2,80,68,59,75,67,58,97,96,78,30.22,30.07,17,4,17,0.04
2013-7-3,86,72,59,75,67,58,98,86,65,30.22,30.12,18,4,19,0.01
2013-7-4,90,81,73,75,73,71,94,77,58,30.19,30.07,18,5,19,0.00
2013-7-5,90,83,74,76,74,72,91,74,57,30.15,30.01,18,5,19,0.00
2013-7-6,86,80,74,74,70,64,91,72,55,30.06,29.97,23,6,23,0.00
2013-7-7,88,78,70,76,68,62,82,72,55,30.01,29.90,14,3,14,0.00
2013-7-8,81,74,64,74,70,62,95,87,77,30.07,29.90,17,4,17,1.23
2013-7-9,70,66,63,67,64,62,96,93,88,30.11,30.05,10,2,10,0.00
2013-7-10,80,69,64,74,67,63,97,95,83,30.08,29.79,13,4,14,1.77
2013-7-11,82,74,70,74,71,68,97,93,74,29.94,29.76,19,4,19,0.10
2013-7-12,75,70,65,68,60,56,94,74,54,30.21,29.94,17,5,18,0.00
2013-7-13,79,70,63,70,64,58,93,81,70,30.32,30.21,11,3,11,0.00
2013-7-14,86,78,69,74,71,68,97,81,61,30.30,30.20,13,3,14,0.00
2013-7-15,90,80,70,74,70,67,92,73,53,30.20,30.09,14,4,15,0.00
2013-7-16,89,80,72,74,69,65,81,69,48,30.17,30.11,15,4,15,0.00
2013-7-17,91,82,72,74,71,67,91,71,53,30.17,29.96,13,4,13,0.00
2013-7-18,90,80,73,75,72,69,92,75,54,30.01,29.93,16,3,19,0.00
2013-7-19,92,83,73,77,73,70,94,74,52,29.94,29.69,28,6,28,0.00
2013-7-20,88,82,76,75,70,65,82,68,57,29.74,29.64,22,6,25,0.00
2013-7-23,75,73,70,73,71,69,97,93,84,29.61,29.54,12,2,12,1.02
2013-7-24,81,73,61,72,66,50,97,79,61,29.98,29.58,20,5,22,0.00
2013-7-25,60,58,57,50,49,48,75,71,67,30.01,29.97,17,6,19,0.00
2013-7-28,69,66,64,66,64,63,96,94,91,30.02,29.99,11,4,11,0.09
2013-7-29,82,70,64,72,67,63,97,90,66,30.05,29.95,24,3,27,0.29
2013-7-30,78,70,61,66,59,56,96,69,48,30.10,30.03,20,5,20,0.00
2013-7-31,80,70,62,64,60,57,89,71,49,30.14,30.04,11,4,12,0.00
2013-8-1,79,69,62,66,63,60,94,82,58,30.05,29.88,20,3,20,0.04
2013-8-2,80,70,63,67,62,56,97,77,46,29.88,29.78,20,4,20,1.59
2013-8-3,79,70,62,64,59,55,89,70,47,29.86,29.76,22,5,22,0.00
2013-8-4,76,66,58,64,57,52,89,72,55,29.89,29.77,16,4,17,0.18
2013-8-5,73,63,54,53,47,37,87,58,29,30.06,29.88,24,7,27,0.00
2013-8-6,76,64,53,57,51,46,81,64,43,30.16,30.06,13,3,13,0.00
2013-8-7,78,68,57,61,57,53,89,69,42,30.19,30.10,17,3,17,0.00
2013-8-8,80,71,62,71,66,57,93,84,73,30.12,30.00,18,5,18,0.12
2013-8-9,73,71,70,72,70,68,97,95,90,30.02,29.73,21,5,24,3.23
2013-8-10,79,72,63,70,60,50,97,70,37,30.01,29.78,24,5,24,0.02
2013-8-11,78,67,56,59,55,51,85,66,45,30.08,30.00,15,4,16,0.01
2013-8-12,79,69,60,62,58,54,85,68,48,30.03,29.92,16,4,16,0.00
2013-8-13,72,68,65,67,64,61,93,87,78,29.92,29.68,10,2,12,0.06
2013-8-14,72,65,58,63,55,50,95,72,53,29.95,29.66,28,7,28,0.00
2013-8-15,74,64,53,55,52,49,87,68,47,30.11,29.95,19,4,20,0.02
2013-8-16,78,67,55,58,54,51,86,66,48,30.19,30.10,15,3,15,0.02
2013-8-17,80,68,57,63,58,54,90,72,45,30.28,30.19,10,3,10,0.02
2013-8-18,78,69,60,66,61,56,93,77,53,30.27,30.08,14,3,14,0.01
2013-8-19,78,70,60,64,61,58,93,76,57,30.08,29.95,15,4,17,0.00
2013-8-20,84,74,64,66,63,59,86,70,50,30.09,29.98,11,3,12,0.02
2013-8-21,86,75,65,68,64,61,86,70,49,30.14,30.01,14,3,14,0.02
2013-8-22,85,75,66,71,66,62,88,75,53,30.03,29.81,18,5,18,0.02
2013-8-23,77,71,62,68,58,49,90,66,45,30.14,29.81,19,6,19,0.02
2013-8-24,78,65,54,54,50,45,86,60,38,30.33,30.14,12,4,12,0.02
2013-8-25,80,68,56,59,54,49,83,62,35,30.37,30.17,17,4,17,0.02
2013-8-26,78,70,62,68,63,56,91,77,66,30.17,29.86,18,4,18,0.03
2013-8-27,83,74,68,69,66,64,93,78,57,29.90,29.83,13,3,14,0.02
2013-8-28,83,73,66,69,66,63,94,79,60,29.98,29.85,17,3,17,0.02
2013-8-29,66,63,60,64,61,58,96,92,88,30.09,29.96,20,4,20,0.01
2013-8-30,84,70,58,68,63,57,96,81,57,30.03,29.81,14,3,14,0.01
2013-8-31,79,72,68,74,70,66,96,91,84,29.85,29.77,15,4,16,0.01
2013-9-1,83,75,69,73,71,67,96,87,71,29.88,29.78,13,3,13,0.01
2013-9-2,76,72,69,74,71,66,97,94,90,29.86,29.71,14,3,14,0.00
2013-9-3,78,70,62,71,66,57,97,87,70,29.80,29.69,14,3,16,0.00
2013-9-4,79,68,58,61,57,53,93,69,45,29.91,29.79,23,5,23,0.01
2013-9-5,68,62,52,58,50,41,90,65,39,30.15,29.85,22,5,22,0.00
2013-9-6,68,57,45,47,43,39,85,62,39,30.25,30.09,13,4,13,0.00
2013-9-7,78,63,51,58,51,45,82,67,37,30.09,29.85,14,4,14,0.01
2013-9-8,69,62,51,60,50,42,82,66,46,30.10,29.75,29,7,30,0.00
2013-9-9,68,57,46,50,44,40,81,64,43,30.24,30.09,18,4,18,0.00
2013-9-10,73,64,54,70,61,49,95,89,78,30.15,30.03,16,4,17,0.00
2013-9-11,92,80,69,76,72,68,96,78,54,30.06,29.93,22,5,23,0.08
2013-9-12,83,71,65,75,68,64,96,90,78,29.94,29.66,21,3,21,0.01
2013-9-13,74,66,57,68,62,53,97,90,75,29.76,29.58,22,4,22,0.00
2013-9-14,65,58,52,55,52,50,91,82,67,30.06,29.76,17,6,17,0.00
2013-9-15,69,58,48,53,50,47,96,77,51,30.17,30.04,14,4,14,0.00
2013-9-16,64,56,45,56,49,38,90,79,60,30.27,30.00,24,6,24,0.00
2013-9-17,63,51,39,44,40,36,90,68,45,30.44,30.27,18,4,18,0.00
2013-9-18,72,58,44,50,46,41,90,67,38,30.33,30.14,11,4,12,0.00
2013-9-19,77,63,50,57,52,46,89,69,43,30.14,30.04,8,3,9,0.00
2013-9-20,77,64,54,62,56,51,91,76,47,30.10,30.00,11,4,12,0.00
2013-9-21,73,63,53,64,58,52,96,86,69,30.03,29.72,25,5,25,0.03
2013-9-22,69,62,51,66,56,43,96,80,58,29.84,29.60,26,7,26,0.02
2013-9-23,58,51,44,45,42,39,84,72,58,30.01,29.83,25,8,27,0.00
2013-9-24,63,52,42,46,42,38,88,71,48,30.00,29.84,24,6,26,0.00
2013-9-25,65,55,46,53,48,42,88,77,61,30.00,29.89,15,3,16,0.00
2013-9-26,66,57,50,52,49,47,91,75,56,30.15,30.00,12,3,12,0.00
2013-9-27,67,59,54,54,52,49,90,79,63,30.27,30.15,12,3,12,0.00
2013-9-28,71,60,51,57,53,49,93,79,57,30.34,30.27,16,4,16,0.00
2013-9-29,66,55,46,54,49,45,96,83,52,30.27,30.14,12,2,13,0.00
2013-9-30,69,55,44,54,49,42,96,83,52,30.14,29.98,10,2,10,0.00
2013-10-1,75,62,49,58,53,47,95,75,47,29.98,29.86,15,4,15,0.00
2013-10-2,78,66,56,62,58,52,89,75,55,29.95,29.83,28,5,28,0.00
2013-10-3,76,66,57,57,52,47,80,62,37,30.09,29.95,12,4,12,0.00
2013-10-4,59,58,56,57,55,51,95,91,81,30.10,30.05,8,2,8,0.00
2013-10-5,68,60,56,63,56,52,96,86,72,30.14,30.06,9,2,10,0.23
2013-10-6,58,53,50,55,51,48,96,93,87,30.26,30.13,16,4,16,0.40
2013-10-7,76,63,54,69,61,53,97,92,75,30.16,29.79,29,6,32,0.50
2013-10-8,62,55,48,55,44,38,93,68,42,30.39,29.90,22,6,24,0.00
2013-10-9,60,50,41,46,42,37,91,76,57,30.50,30.39,14,4,14,0.00
2013-10-10,60,51,43,50,47,41,95,86,62,30.39,30.20,8,3,9,0.00
2013-10-11,69,57,48,52,48,40,95,75,37,30.20,30.12,10,3,10,0.00
2013-10-12,55,53,49,53,51,48,95,92,83,30.42,30.17,21,6,21,0.03
2013-10-13,58,50,44,50,46,43,96,86,67,30.47,30.40,13,4,14,0.01
2013-10-14,64,52,38,48,44,36,96,77,48,30.42,30.26,10,3,10,0.00
2013-10-15,62,56,53,54,51,46,95,82,68,30.28,30.19,14,3,14,0.00
2013-10-16,59,54,52,52,51,49,96,89,69,30.20,29.92,11,2,11,0.01
2013-10-17,73,60,50,60,51,46,97,76,42,29.93,29.72,19,3,20,0.06
2013-10-18,64,60,51,60,50,38,96,72,50,29.90,29.60,29,8,29,0.08
2013-10-19,66,55,44,47,42,38,82,63,45,29.98,29.75,12,4,16,0.00
2013-10-20,59,53,47,48,40,35,93,64,44,30.02,29.69,24,7,29,0.00
2013-10-21,66,53,42,43,40,35,78,62,42,30.12,29.99,16,4,18,0.00
2013-10-22,61,53,46,51,46,37,92,77,66,29.99,29.71,21,5,21,0.00
2013-10-23,50,45,38,37,35,33,82,67,54,29.81,29.60,14,3,15,0.00
2013-10-24,50,44,38,36,32,28,82,62,43,29.89,29.65,27,7,27,0.00
2013-10-25,48,41,35,34,30,26,87,66,46,30.15,29.88,23,6,30,0.00
2013-10-26,53,44,34,35,30,26,86,62,38,30.15,29.88,34,6,36,0.00
2013-10-27,52,47,38,37,34,28,76,60,47,30.06,29.80,25,6,25,0.00
2013-10-28,55,43,35,37,31,24,84,63,43,30.36,30.06,26,6,27,0.00
2013-10-29,47,38,29,31,23,19,81,58,35,30.47,30.36,11,3,13,0.00
2013-10-30,49,40,33,37,30,21,82,68,60,30.38,30.22,9,3,9,0.01
2013-10-31,59,47,38,58,45,35,96,91,79,30.26,29.80,25,4,26,0.31
2013-11-1,68,63,57,62,57,52,95,81,66,29.79,29.42,46,11,46,0.05
2013-11-2,65,55,48,52,44,41,88,68,43,29.74,29.60,21,4,21,0.01
2013-11-3,49,39,30,45,27,16,90,64,36,30.44,29.73,19,6,19,0.01
2013-11-4,42,33,26,21,18,15,69,54,34,30.73,30.44,12,4,14,0.00
2013-11-5,49,39,29,34,27,20,77,64,48,30.74,30.52,16,4,16,0.00
2013-11-6,60,49,39,47,41,33,85,73,56,30.52,30.03,30,6,30,0.00
2013-11-7,62,53,40,56,48,34,90,84,73,30.03,29.68,29,7,29,0.11
2013-11-8,46,38,32,34,27,23,80,65,52,30.09,29.81,32,7,32,0.01
2013-11-9,43,38,32,29,24,22,68,58,46,30.22,30.04,23,6,23,0.00
2013-11-10,50,43,38,42,36,29,92,75,62,30.04,29.74,28,6,30,0.16
2013-11-11,50,44,38,33,28,24,72,55,38,30.10,29.85,33,8,37,0.00
2013-11-12,47,34,26,36,22,16,90,63,53,30.19,29.88,28,8,28,0.03
2013-11-13,34,28,23,16,14,11,70,56,41,30.31,30.16,22,7,22,0.00
2013-11-14,50,40,28,29,23,16,65,51,42,30.16,30.05,26,7,27,0.00
2013-11-15,59,48,39,25,20,16,44,34,19,30.20,30.11,17,5,17,0.00
2013-11-16,60,48,40,32,28,24,55,46,31,30.32,30.18,10,4,11,0.00
2013-11-17,53,44,35,52,41,30,96,87,54,30.33,29.86,14,3,14,0.25
2013-11-18,63,58,47,60,48,32,97,72,44,29.85,29.53,28,9,33,0.58
2013-11-19,47,38,30,32,22,16,60,53,44,30.29,29.65,36,12,36,0.00
2013-11-20,39,32,28,17,15,13,61,49,35,30.65,30.29,33,9,35,0.00
2013-11-21,46,36,26,29,20,14,67,52,29,30.66,30.38,16,5,17,0.00
2013-11-22,42,41,39,41,38,30,96,89,68,30.38,29.82,8,2,11,0.41
2013-11-23,45,37,28,44,27,12,96,68,47,29.93,29.77,29,10,30,0.01
2013-11-24,28,22,18,19,6,-1,88,50,34,30.19,29.78,46,16,49,0.00
2013-11-25,32,23,15,14,3,-6,53,41,24,30.38,30.19,27,8,30,0.00
2013-11-26,35,32,27,32,23,14,94,71,51,30.35,30.08,18,4,18,0.00
2013-11-27,61,48,34,60,46,30,97,94,78,30.08,29.24,38,10,38,3.20
2013-11-28,37,29,22,31,15,5,82,57,37,30.44,29.42,35,11,38,0.00
2013-11-29,29,23,19,14,10,4,77,58,34,30.77,30.44,21,5,21,0.00
2013-11-30,31,24,14,21,14,9,79,67,51,30.83,30.45,13,4,14,0.00
2013-12-1,36,33,29,34,29,21,95,88,71,30.46,30.05,10,2,13,0.27
2013-12-2,37,36,34,36,35,33,96,96,95,30.04,29.94,9,2,9,0.04
2013-12-3,47,38,33,38,34,30,96,85,63,29.96,29.87,13,5,14,0.00
2013-12-4,40,35,30,30,28,27,91,74,60,30.22,29.96,18,5,18,0.00
2013-12-5,43,38,34,42,34,27,96,87,67,30.24,29.92,10,3,11,0.09
2013-12-6,52,44,33,51,40,31,97,88,63,30.18,29.87,19,5,19,0.17
2013-12-7,35,32,26,32,26,18,95,82,63,30.45,30.09,21,6,22,0.17
2013-12-8,28,26,22,20,18,16,79,73,66,30.61,30.45,10,2,10,0.00
2013-12-9,35,30,24,33,27,16,96,90,65,30.52,29.90,12,4,16,0.20
2013-12-10,34,31,23,33,26,14,96,85,62,29.99,29.80,26,6,26,0.01
2013-12-11,30,25,21,19,16,13,82,70,52,30.20,30.00,31,9,31,0.00
2013-12-12,23,19,14,18,7,-1,87,62,36,30.28,30.06,26,6,26,0.00
2013-12-13,26,18,10,18,10,-2,84,68,55,30.43,29.99,24,7,24,0.00
2013-12-14,15,10,6,12,2,-4,88,68,54,30.64,30.22,18,5,18,0.00
2013-12-15,28,21,14,26,19,11,93,90,85,30.23,29.46,25,8,27,0.00
2013-12-16,26,22,14,20,12,3,87,67,44,30.22,29.74,31,9,32,0.00
2013-12-17,16,10,2,14,4,-4,90,75,55,30.31,30.00,19,5,19,0.00
2013-12-18,33,24,13,22,18,10,89,79,61,30.08,29.92,25,8,25,0.00
2013-12-19,40,33,26,26,23,20,81,68,53,30.12,29.97,23,7,23,0.05
2013-12-20,51,42,35,35,31,26,72,65,53,30.14,29.91,15,4,15,0.07
2013-12-21,58,49,42,47,40,33,86,73,62,29.96,29.86,16,6,16,0.00
2013-12-22,50,37,31,47,35,30,96,94,86,30.05,29.79,24,4,24,0.26
2013-12-23,36,32,30,35,31,29,96,96,95,30.12,29.98,13,2,13,0.56
2013-12-24,36,30,23,35,22,13,96,71,55,30.22,30.08,27,6,27,0.00
2013-12-25,23,16,10,13,4,-1,75,58,47,30.57,30.21,27,6,30,0.00
2013-12-26,26,22,17,23,17,5,93,80,59,30.53,30.11,13,3,13,0.00
2013-12-27,33,28,22,22,20,18,87,75,59,30.28,30.20,21,6,21,0.04
2013-12-28,46,35,24,31,26,20,86,71,54,30.23,29.99,26,6,27,0.02
2013-12-29,40,37,34,34,31,28,95,79,67,30.03,29.48,20,5,20,1.02
2013-12-30,41,31,14,35,23,4,95,73,46,30.19,29.53,31,9,34,0.01
2013-12-31,22,16,8,14,4,-3,78,60,47,30.18,30.04,21,4,23,0.00
2014-1-1,24,19,15,10,8,6,68,61,47,30.41,30.19,26,7,26,0.00
2014-1-2,18,8,-1,12,4,-5,87,83,68,30.39,29.92,24,7,26,0.00